createdAt,value
2022-11-06T00:00:39.615Z,7.38
2022-11-06T00:06:00.871Z,6.13
2022-11-06T00:11:09.190Z,6.13
2022-11-06T00:16:15.465Z,6.90
2022-11-06T00:21:20.328Z,5.32
2022-11-06T00:26:24.111Z,5.78
2022-11-06T00:31:29.501Z,4.75
2022-11-06T00:36:31.129Z,5.60
2022-11-06T00:41:32.593Z,6.40
2022-11-06T00:46:34.064Z,6.38
2022-11-06T00:51:39.494Z,6.03
2022-11-06T00:56:41.485Z,5.18
2022-11-06T01:01:45.351Z,5.38
2022-11-06T01:06:49.585Z,4.65
2022-11-06T01:12:12.373Z,4.60
2022-11-06T01:17:14.357Z,4.15
2022-11-06T01:22:16.107Z,5.00
2022-11-06T01:27:26.524Z,3.92
2022-11-06T01:32:28.614Z,5.15
2022-11-06T01:37:30.078Z,4.30
2022-11-06T01:42:31.506Z,6.10
2022-11-06T01:47:32.974Z,5.50
2022-11-06T01:52:35.562Z,5.53
2022-11-06T01:57:37.248Z,4.60
2022-11-06T02:02:39.501Z,4.63
2022-11-06T02:07:42.844Z,4.22
2022-11-06T02:13:03.236Z,5.15
2022-11-06T02:18:36.138Z,3.92
2022-11-06T02:23:58.273Z,3.95
2022-11-06T02:29:21.033Z,4.20
2022-11-06T02:34:26.300Z,3.97
2022-11-06T02:39:30.831Z,4.85
2022-11-06T02:44:36.412Z,3.63
2022-11-06T02:49:40.077Z,5.15
2022-11-06T02:54:49.022Z,3.72
2022-11-06T03:00:01.225Z,4.22
2022-11-06T03:05:12.860Z,4.13
2022-11-06T03:10:14.762Z,4.75
2022-11-06T03:16:01.359Z,3.75
2022-11-06T03:21:38.993Z,4.93
2022-11-06T03:26:45.724Z,5.30
2022-11-06T03:32:15.739Z,3.67
2022-11-06T03:37:23.785Z,4.03
2022-11-06T03:42:30.883Z,4.95
2022-11-06T03:47:38.129Z,3.33
2022-11-06T03:52:44.722Z,3.50
2022-11-06T03:57:52.494Z,3.22
2022-11-06T04:03:05.831Z,3.95
2022-11-06T04:08:28.196Z,3.80
2022-11-06T04:13:51.813Z,4.88
2022-11-06T04:18:53.283Z,4.38
2022-11-06T04:24:38.576Z,3.28
2022-11-06T04:30:08.912Z,2.80
2022-11-06T04:35:22.172Z,3.65
2022-11-06T04:40:53.973Z,3.08
2022-11-06T04:45:58.616Z,3.22
2022-11-06T04:51:04.864Z,2.60
2022-11-06T04:56:10.801Z,3.22
2022-11-06T05:01:12.329Z,2.95
2022-11-06T05:06:14.021Z,3.25
2022-11-06T05:11:15.532Z,3.10
2022-11-06T05:16:17.045Z,3.38
2022-11-06T05:21:37.208Z,2.90
2022-11-06T05:26:38.715Z,3.28
2022-11-06T05:31:40.397Z,2.95
2022-11-06T05:36:41.905Z,4.07
2022-11-06T05:41:43.394Z,2.42
2022-11-06T05:46:49.670Z,2.95
2022-11-06T05:51:51.638Z,3.97
2022-11-06T05:56:53.114Z,7.93
2022-11-06T06:01:54.934Z,8.63
2022-11-06T06:06:56.596Z,5.45
2022-11-06T06:11:58.117Z,7.57
2022-11-06T06:16:59.866Z,4.78
2022-11-06T06:22:01.441Z,4.47
2022-11-06T06:27:03.608Z,3.22
2022-11-06T06:32:05.401Z,3.20
2022-11-06T06:37:06.929Z,4.10
2022-11-06T06:42:08.581Z,2.63
2022-11-06T06:47:10.121Z,3.00
2022-11-06T06:52:12.278Z,6.05
2022-11-06T06:57:13.759Z,3.45
2022-11-06T07:02:15.301Z,2.30
2022-11-06T07:07:16.955Z,2.92
2022-11-06T07:12:18.460Z,2.15
2022-11-06T07:17:19.959Z,2.35
2022-11-06T07:22:29.562Z,2.25
2022-11-06T07:27:33.847Z,2.00
2022-11-06T07:32:35.415Z,1.55
2022-11-06T07:37:37.211Z,1.27
2022-11-06T07:42:43.258Z,1.23
2022-11-06T07:47:45.251Z,1.20
2022-11-06T07:52:46.693Z,1.13
2022-11-06T07:57:48.456Z,1.13
2022-11-06T08:02:53.959Z,1.60
2022-11-06T08:07:58.490Z,1.75
2022-11-06T08:13:00.911Z,2.47
2022-11-06T08:18:02.438Z,1.80
2022-11-06T08:23:05.986Z,2.25
2022-11-06T08:28:07.538Z,3.00
2022-11-06T08:33:09.231Z,3.70
2022-11-06T08:38:10.854Z,4.00
2022-11-06T08:43:12.757Z,3.83
2022-11-06T08:48:14.405Z,4.32
2022-11-06T08:53:16.296Z,4.07
2022-11-06T08:58:18.270Z,5.32
2022-11-06T09:03:19.719Z,4.25
2022-11-06T09:08:21.231Z,3.38
2022-11-06T09:13:22.753Z,4.05
2022-11-06T09:18:24.243Z,3.30
2022-11-06T09:23:25.890Z,2.95
2022-11-06T09:28:27.368Z,2.88
2022-11-06T09:33:28.825Z,2.50
2022-11-06T09:38:30.313Z,2.42
2022-11-06T09:44:09.327Z,2.05
2022-11-06T09:49:28.901Z,2.35
2022-11-06T09:54:38.996Z,2.40
2022-11-06T09:59:41.541Z,2.53
2022-11-06T10:04:55.773Z,2.22
2022-11-06T10:09:57.844Z,2.55
2022-11-06T10:15:23.053Z,2.78
2022-11-06T10:21:07.047Z,3.20
2022-11-06T10:26:15.995Z,2.83
2022-11-06T10:31:41.235Z,2.83
2022-11-06T10:36:50.288Z,2.70
2022-11-06T10:41:58.978Z,2.65
2022-11-06T10:47:23.055Z,2.80
2022-11-06T10:53:01.488Z,2.70
2022-11-06T10:58:06.544Z,2.10
2022-11-06T11:03:28.167Z,2.70
2022-11-06T11:08:35.503Z,1.70
2022-11-06T11:13:38.956Z,1.80
2022-11-06T11:18:40.432Z,2.53
2022-11-06T11:23:42.180Z,2.05
2022-11-06T11:28:49.682Z,2.10
2022-11-06T11:33:54.777Z,1.95
2022-11-06T11:38:56.632Z,2.20
2022-11-06T11:44:06.043Z,2.20
2022-11-06T11:49:26.370Z,2.97
2022-11-06T11:54:34.352Z,2.35
2022-11-06T11:59:46.359Z,2.67
2022-11-06T12:04:52.776Z,2.53
2022-11-06T12:09:54.589Z,2.58
2022-11-06T12:15:21.334Z,2.47
2022-11-06T12:20:57.985Z,2.25
2022-11-06T12:26:08.669Z,3.17
2022-11-06T12:31:24.324Z,7.10
2022-11-06T12:36:29.786Z,4.80
2022-11-06T12:41:45.419Z,7.05
2022-11-06T12:47:05.476Z,3.70
2022-11-06T12:52:32.456Z,3.83
2022-11-06T12:57:38.801Z,2.40
2022-11-06T13:02:58.482Z,3.92
2022-11-06T13:08:25.005Z,2.43
2022-11-06T13:13:54.681Z,2.67
2022-11-06T13:19:09.629Z,2.20
2022-11-06T13:24:18.437Z,3.33
2022-11-06T13:29:23.989Z,3.55
2022-11-06T13:34:30.535Z,3.17
2022-11-06T13:39:42.790Z,2.90
2022-11-06T13:44:44.447Z,1.85
2022-11-06T13:50:10.754Z,2.80
2022-11-06T13:55:53.443Z,2.90
2022-11-06T14:01:13.297Z,2.63
2022-11-06T14:06:21.820Z,3.27
2022-11-06T14:11:30.416Z,2.80
2022-11-06T14:16:34.092Z,3.55
2022-11-06T14:21:53.237Z,3.90
2022-11-06T14:26:54.933Z,9.35
2022-11-06T14:32:19.372Z,17.27
2022-11-06T14:37:30.847Z,19.40
2022-11-06T14:42:42.020Z,10.15
2022-11-06T14:47:46.183Z,7.15
2022-11-06T14:53:03.461Z,17.73
2022-11-06T14:58:24.495Z,15.93
2022-11-06T15:03:35.771Z,22.38
2022-11-06T15:08:46.543Z,10.65
2022-11-06T15:13:48.094Z,15.18
2022-11-06T15:18:51.373Z,11.60
2022-11-06T15:24:07.216Z,14.60
2022-11-06T15:29:17.505Z,11.00
2022-11-06T15:34:33.736Z,17.40
2022-11-06T15:40:00.959Z,7.95
2022-11-06T15:45:21.558Z,28.27
2022-11-06T15:50:31.162Z,10.93
2022-11-06T15:55:35.998Z,10.80
2022-11-06T16:00:41.423Z,9.25
2022-11-06T16:05:43.474Z,5.18
2022-11-06T16:10:48.522Z,8.90
2022-11-06T16:15:57.274Z,8.10
2022-11-06T16:21:18.894Z,9.73
2022-11-06T16:26:37.309Z,8.82
2022-11-06T16:31:40.087Z,7.07
2022-11-06T16:37:00.024Z,7.60
2022-11-06T16:42:16.712Z,5.33
2022-11-06T16:47:22.822Z,6.72
2022-11-06T16:52:34.454Z,10.57
2022-11-06T16:57:44.275Z,7.93
2022-11-06T17:02:49.254Z,8.80
2022-11-06T17:08:07.371Z,9.50
2022-11-06T17:13:25.095Z,34.80
2022-11-06T17:18:31.567Z,11.48
2022-11-06T17:23:33.882Z,13.88
2022-11-06T17:28:35.438Z,13.38
2022-11-06T17:33:37.016Z,15.52
2022-11-06T17:38:38.593Z,12.85
2022-11-06T17:43:43.065Z,11.73
2022-11-06T17:48:44.515Z,9.63
2022-11-06T17:53:46.023Z,11.30
2022-11-06T17:58:47.481Z,11.10
2022-11-06T18:03:49.040Z,10.25
2022-11-06T18:08:58.408Z,8.25
2022-11-06T18:14:00.079Z,8.60
2022-11-06T18:19:01.847Z,8.45
2022-11-06T18:24:03.973Z,9.25
2022-11-06T18:29:07.052Z,9.60
2022-11-06T18:34:18.445Z,6.85
2022-11-06T18:39:21.600Z,7.25
2022-11-06T18:44:26.347Z,6.22
2022-11-06T18:49:27.803Z,6.70
2022-11-06T18:54:29.883Z,8.77
2022-11-06T18:59:31.714Z,7.18
2022-11-06T19:04:33.244Z,6.95
2022-11-06T19:09:34.743Z,19.77
2022-11-06T19:14:36.227Z,26.98
2022-11-06T19:19:37.875Z,6.72
2022-11-06T19:24:39.409Z,11.60
2022-11-06T19:29:40.904Z,7.03
2022-11-06T19:34:42.519Z,5.38
2022-11-06T19:39:43.984Z,4.68
2022-11-06T19:44:45.439Z,5.15
2022-11-06T19:49:46.900Z,4.70
2022-11-06T19:54:48.381Z,4.35
2022-11-06T19:59:49.832Z,3.63
2022-11-06T20:04:51.333Z,3.05
2022-11-06T20:09:54.568Z,3.03
2022-11-06T20:14:56.064Z,3.72
2022-11-06T20:19:57.568Z,3.25
2022-11-06T20:24:59.081Z,3.45
2022-11-06T20:30:00.690Z,3.10
2022-11-06T20:35:03.324Z,3.83
2022-11-06T20:40:05.602Z,6.78
2022-11-06T20:45:07.965Z,8.98
2022-11-06T20:50:09.576Z,6.25
2022-11-06T20:55:11.063Z,6.70
2022-11-06T21:00:13.307Z,7.93
2022-11-06T21:05:15.093Z,6.20
2022-11-06T21:10:16.779Z,5.45
2022-11-06T21:15:18.241Z,3.72
2022-11-06T21:20:23.035Z,4.35
2022-11-06T21:25:24.793Z,3.13
2022-11-06T21:30:26.332Z,1.50
2022-11-06T21:35:27.954Z,1.20
2022-11-06T21:40:29.524Z,1.33
2022-11-06T21:45:31.047Z,1.20
2022-11-06T21:50:32.594Z,1.52
2022-11-06T21:55:53.903Z,0.80
2022-11-06T22:00:55.609Z,0.98
2022-11-06T22:06:04.875Z,1.20
2022-11-06T22:11:14.756Z,1.40
2022-11-06T22:16:19.196Z,3.67
2022-11-06T22:21:23.827Z,1.58
2022-11-06T22:26:29.158Z,1.42
2022-11-06T22:31:30.898Z,2.00
2022-11-06T22:36:32.522Z,1.63
2022-11-06T22:41:34.544Z,1.60
2022-11-06T22:46:36.407Z,1.98
2022-11-06T22:51:38.480Z,1.83
2022-11-06T22:56:40.027Z,1.70
2022-11-06T23:01:42.841Z,1.38
2022-11-06T23:06:45.380Z,1.85
2022-11-06T23:11:47.326Z,2.15
2022-11-06T23:16:57.672Z,1.33
2022-11-06T23:22:18.366Z,2.05
2022-11-06T23:32:22.330Z,1.67
2022-11-06T23:37:24.619Z,1.30
2022-11-06T23:42:26.279Z,1.15
2022-11-06T23:47:28.148Z,1.40
2022-11-06T23:52:29.702Z,1.20
2022-11-06T23:57:31.200Z,1.23
